Prather, California
Current Conditions -  °F | °C
As of 4:53 PM on Thursday 27 Nov 2014 (Local Time) from KFAT Reporting Station
Few Clouds Few Clouds  
Wind Chill: 19°   Ceiling: Unl
Heat Index: 19°   Visibility: 7mi
Dew Point:   Wind: 0mph
Humidity: 47%   Direction: NA
Pressure: 30.07"   Gusts: NA
Location:  37.04°N, 119.51°W
Report Text: KFAT 280053Z 00000KT 7SM FEW200 19/07 A3007 RMK AO2 SLP182 T01890072
Loading
Personal Weather Stations






























Interactive Weather Map New forecast layout! Learn more

10-Day Weather Forecast

Advertisements
Track Severe Weather on mobile